sensor_id;sensor_type;location;lat;lon;timestamp;P1;durP1;ratioP1;P2;durP2;ratioP2
54561;SDS011;40456;53.358;-1.486;2023-02-28T00:00:10;1.73;;;1.50;;
54561;SDS011;40456;53.358;-1.486;2023-02-28T00:02:37;2.17;;;1.20;;
54561;SDS011;40456;53.358;-1.486;2023-02-28T00:05:03;2.85;;;1.30;;
54561;SDS011;40456;53.358;-1.486;2023-02-28T00:07:30;1.63;;;1.50;;
54561;SDS011;40456;53.358;-1.486;2023-02-28T00:09:56;2.38;;;1.30;;
54561;SDS011;40456;53.358;-1.486;2023-02-28T00:12:21;1.73;;;1.45;;
54561;SDS011;40456;53.358;-1.486;2023-02-28T00:14:47;1.27;;;1.17;;
54561;SDS011;40456;53.358;-1.486;2023-02-28T00:17:13;2.10;;;1.38;;
54561;SDS011;40456;53.358;-1.486;2023-02-28T00:19:38;2.05;;;1.23;;
54561;SDS011;40456;53.358;-1.486;2023-02-28T00:22:04;1.50;;;1.00;;
54561;SDS011;40456;53.358;-1.486;2023-02-28T00:24:29;2.30;;;1.33;;
54561;SDS011;40456;53.358;-1.486;2023-02-28T00:26:55;1.88;;;0.70;;
54561;SDS011;40456;53.358;-1.486;2023-02-28T00:29:20;1.30;;;0.80;;
54561;SDS011;40456;53.358;-1.486;2023-02-28T00:31:45;1.35;;;1.00;;
54561;SDS011;40456;53.358;-1.486;2023-02-28T00:34:11;2.22;;;1.45;;
54561;SDS011;40456;53.358;-1.486;2023-02-28T00:36:36;2.75;;;1.05;;
54561;SDS011;40456;53.358;-1.486;2023-02-28T00:39:01;1.40;;;1.00;;
54561;SDS011;40456;53.358;-1.486;2023-02-28T00:41:27;1.10;;;1.00;;
54561;SDS011;40456;53.358;-1.486;2023-02-28T00:43:52;2.38;;;1.55;;
54561;SDS011;40456;53.358;-1.486;2023-02-28T00:46:17;1.98;;;1.33;;
54561;SDS011;40456;53.358;-1.486;2023-02-28T00:48:43;2.30;;;1.65;;
54561;SDS011;40456;53.358;-1.486;2023-02-28T00:51:08;1.77;;;1.60;;
54561;SDS011;40456;53.358;-1.486;2023-02-28T00:53:34;1.65;;;1.23;;
54561;SDS011;40456;53.358;-1.486;2023-02-28T00:55:59;1.70;;;1.48;;
54561;SDS011;40456;53.358;-1.486;2023-02-28T00:58:25;3.83;;;1.70;;
54561;SDS011;40456;53.358;-1.486;2023-02-28T01:00:51;2.38;;;1.85;;
54561;SDS011;40456;53.358;-1.486;2023-02-28T01:03:18;2.25;;;1.70;;
54561;SDS011;40456;53.358;-1.486;2023-02-28T01:05:45;2.90;;;2.00;;
54561;SDS011;40456;53.358;-1.486;2023-02-28T01:08:11;2.55;;;1.80;;
54561;SDS011;40456;53.358;-1.486;2023-02-28T01:10:38;2.25;;;1.70;;
54561;SDS011;40456;53.358;-1.486;2023-02-28T01:13:05;2.25;;;1.92;;
54561;SDS011;40456;53.358;-1.486;2023-02-28T01:15:30;3.30;;;1.98;;
54561;SDS011;40456;53.358;-1.486;2023-02-28T01:17:57;4.53;;;1.70;;
54561;SDS011;40456;53.358;-1.486;2023-02-28T01:20:23;1.50;;;1.40;;
54561;SDS011;40456;53.358;-1.486;2023-02-28T01:22:50;1.65;;;1.55;;
54561;SDS011;40456;53.358;-1.486;2023-02-28T01:25:19;1.73;;;1.63;;
54561;SDS011;40456;53.358;-1.486;2023-02-28T01:27:45;3.95;;;2.17;;
54561;SDS011;40456;53.358;-1.486;2023-02-28T01:30:10;3.97;;;1.77;;
54561;SDS011;40456;53.358;-1.486;2023-02-28T01:32:36;2.35;;;1.60;;
54561;SDS011;40456;53.358;-1.486;2023-02-28T01:35:02;2.28;;;1.73;;
54561;SDS011;40456;53.358;-1.486;2023-02-28T01:37:27;4.25;;;1.35;;
54561;SDS011;40456;53.358;-1.486;2023-02-28T01:39:53;2.35;;;1.73;;
54561;SDS011;40456;53.358;-1.486;2023-02-28T01:42:19;2.13;;;1.67;;
54561;SDS011;40456;53.358;-1.486;2023-02-28T01:44:58;1.95;;;1.30;;
54561;SDS011;40456;53.358;-1.486;2023-02-28T01:47:40;2.38;;;1.10;;
54561;SDS011;40456;53.358;-1.486;2023-02-28T01:50:09;2.92;;;1.05;;
54561;SDS011;40456;53.358;-1.486;2023-02-28T01:52:38;2.97;;;1.30;;
54561;SDS011;40456;53.358;-1.486;2023-02-28T01:55:04;2.50;;;1.00;;
54561;SDS011;40456;53.358;-1.486;2023-02-28T01:57:33;1.85;;;1.02;;
54561;SDS011;40456;53.358;-1.486;2023-02-28T02:00:05;1.58;;;0.80;;
54561;SDS011;40456;53.358;-1.486;2023-02-28T02:02:35;3.00;;;1.13;;
54561;SDS011;40456;53.358;-1.486;2023-02-28T02:05:08;2.72;;;1.13;;
54561;SDS011;40456;53.358;-1.486;2023-02-28T02:07:36;2.30;;;1.15;;
54561;SDS011;40456;53.358;-1.486;2023-02-28T02:10:14;1.40;;;0.75;;
54561;SDS011;40456;53.358;-1.486;2023-02-28T02:17:57;3.10;;;1.02;;
54561;SDS011;40456;53.358;-1.486;2023-02-28T02:20:38;1.85;;;0.90;;
54561;SDS011;40456;53.358;-1.486;2023-02-28T02:36:35;2.42;;;0.85;;
54561;SDS011;40456;53.358;-1.486;2023-02-28T02:39:06;1.88;;;0.90;;
54561;SDS011;40456;53.358;-1.486;2023-02-28T02:41:50;1.00;;;0.70;;
54561;SDS011;40456;53.358;-1.486;2023-02-28T02:44:21;1.70;;;1.00;;
54561;SDS011;40456;53.358;-1.486;2023-02-28T02:46:50;2.50;;;1.30;;
54561;SDS011;40456;53.358;-1.486;2023-02-28T02:49:26;1.52;;;1.10;;
54561;SDS011;40456;53.358;-1.486;2023-02-28T02:51:54;1.52;;;1.27;;
54561;SDS011;40456;53.358;-1.486;2023-02-28T02:54:25;1.17;;;1.08;;
54561;SDS011;40456;53.358;-1.486;2023-02-28T02:56:53;2.53;;;1.50;;
54561;SDS011;40456;53.358;-1.486;2023-02-28T02:59:21;1.25;;;1.10;;
54561;SDS011;40456;53.358;-1.486;2023-02-28T03:01:49;1.67;;;1.17;;
54561;SDS011;40456;53.358;-1.486;2023-02-28T03:04:20;2.08;;;1.60;;
54561;SDS011;40456;53.358;-1.486;2023-02-28T03:06:47;3.03;;;1.42;;
54561;SDS011;40456;53.358;-1.486;2023-02-28T03:09:12;1.50;;;1.40;;
54561;SDS011;40456;53.358;-1.486;2023-02-28T03:11:38;2.10;;;1.60;;
54561;SDS011;40456;53.358;-1.486;2023-02-28T03:14:08;3.70;;;1.52;;
54561;SDS011;40456;53.358;-1.486;2023-02-28T03:25:01;1.27;;;1.08;;
54561;SDS011;40456;53.358;-1.486;2023-02-28T03:30:10;2.17;;;1.55;;
54561;SDS011;40456;53.358;-1.486;2023-02-28T03:32:49;1.40;;;1.30;;
54561;SDS011;40456;53.358;-1.486;2023-02-28T03:35:21;1.55;;;1.20;;
54561;SDS011;40456;53.358;-1.486;2023-02-28T03:38:04;3.67;;;1.75;;
54561;SDS011;40456;53.358;-1.486;2023-02-28T03:40:33;1.48;;;1.30;;
54561;SDS011;40456;53.358;-1.486;2023-02-28T03:43:03;2.85;;;1.33;;
54561;SDS011;40456;53.358;-1.486;2023-02-28T03:45:33;1.63;;;1.15;;
54561;SDS011;40456;53.358;-1.486;2023-02-28T03:48:02;0.98;;;0.90;;
54561;SDS011;40456;53.358;-1.486;2023-02-28T03:50:38;1.48;;;0.95;;
54561;SDS011;40456;53.358;-1.486;2023-02-28T03:53:22;1.10;;;1.00;;
54561;SDS011;40456;53.358;-1.486;2023-02-28T03:59:22;0.88;;;0.88;;
54561;SDS011;40456;53.358;-1.486;2023-02-28T04:01:51;1.42;;;0.80;;
54561;SDS011;40456;53.358;-1.486;2023-02-28T04:04:17;0.95;;;0.80;;
54561;SDS011;40456;53.358;-1.486;2023-02-28T04:06:43;0.70;;;0.70;;
54561;SDS011;40456;53.358;-1.486;2023-02-28T04:09:10;0.60;;;0.60;;
54561;SDS011;40456;53.358;-1.486;2023-02-28T04:11:41;0.98;;;0.70;;
54561;SDS011;40456;53.358;-1.486;2023-02-28T04:14:09;1.88;;;0.90;;
54561;SDS011;40456;53.358;-1.486;2023-02-28T04:16:36;1.70;;;0.90;;
54561;SDS011;40456;53.358;-1.486;2023-02-28T04:19:03;1.50;;;1.40;;
54561;SDS011;40456;53.358;-1.486;2023-02-28T04:21:52;2.05;;;1.50;;
54561;SDS011;40456;53.358;-1.486;2023-02-28T04:24:18;2.15;;;1.60;;
54561;SDS011;40456;53.358;-1.486;2023-02-28T04:26:45;2.22;;;2.00;;
54561;SDS011;40456;53.358;-1.486;2023-02-28T04:29:13;2.00;;;1.70;;
54561;SDS011;40456;53.358;-1.486;2023-02-28T04:31:43;2.33;;;2.13;;
54561;SDS011;40456;53.358;-1.486;2023-02-28T04:34:08;2.75;;;2.30;;
54561;SDS011;40456;53.358;-1.486;2023-02-28T04:36:33;2.97;;;2.30;;
54561;SDS011;40456;53.358;-1.486;2023-02-28T04:38:59;3.15;;;2.30;;
54561;SDS011;40456;53.358;-1.486;2023-02-28T04:41:24;2.97;;;2.10;;
54561;SDS011;40456;53.358;-1.486;2023-02-28T04:43:51;5.55;;;2.80;;
54561;SDS011;40456;53.358;-1.486;2023-02-28T04:46:17;2.92;;;2.47;;
54561;SDS011;40456;53.358;-1.486;2023-02-28T04:48:43;3.20;;;2.90;;
54561;SDS011;40456;53.358;-1.486;2023-02-28T04:51:10;3.58;;;2.95;;
54561;SDS011;40456;53.358;-1.486;2023-02-28T04:53:37;3.50;;;2.30;;
54561;SDS011;40456;53.358;-1.486;2023-02-28T04:56:03;2.83;;;2.35;;
54561;SDS011;40456;53.358;-1.486;2023-02-28T04:58:29;2.83;;;2.53;;
54561;SDS011;40456;53.358;-1.486;2023-02-28T05:01:00;2.72;;;2.47;;
54561;SDS011;40456;53.358;-1.486;2023-02-28T05:03:42;2.75;;;2.47;;
54561;SDS011;40456;53.358;-1.486;2023-02-28T05:06:08;3.55;;;2.03;;
54561;SDS011;40456;53.358;-1.486;2023-02-28T05:08:34;2.40;;;1.98;;
54561;SDS011;40456;53.358;-1.486;2023-02-28T05:11:00;3.47;;;2.17;;
54561;SDS011;40456;53.358;-1.486;2023-02-28T05:13:26;2.25;;;1.73;;
54561;SDS011;40456;53.358;-1.486;2023-02-28T05:15:52;2.95;;;2.22;;
54561;SDS011;40456;53.358;-1.486;2023-02-28T05:18:18;2.67;;;2.10;;
54561;SDS011;40456;53.358;-1.486;2023-02-28T05:20:43;2.47;;;1.85;;
54561;SDS011;40456;53.358;-1.486;2023-02-28T05:23:12;4.30;;;2.20;;
54561;SDS011;40456;53.358;-1.486;2023-02-28T05:25:38;2.42;;;2.20;;
54561;SDS011;40456;53.358;-1.486;2023-02-28T05:28:04;3.17;;;2.58;;
54561;SDS011;40456;53.358;-1.486;2023-02-28T05:30:29;2.95;;;1.80;;
54561;SDS011;40456;53.358;-1.486;2023-02-28T05:32:56;2.20;;;2.00;;
54561;SDS011;40456;53.358;-1.486;2023-02-28T05:35:21;1.95;;;1.77;;
54561;SDS011;40456;53.358;-1.486;2023-02-28T05:37:47;3.33;;;2.20;;
54561;SDS011;40456;53.358;-1.486;2023-02-28T05:40:12;2.33;;;2.13;;
54561;SDS011;40456;53.358;-1.486;2023-02-28T05:42:38;2.28;;;1.85;;
54561;SDS011;40456;53.358;-1.486;2023-02-28T05:45:04;2.47;;;2.15;;
54561;SDS011;40456;53.358;-1.486;2023-02-28T05:47:31;2.40;;;1.90;;
54561;SDS011;40456;53.358;-1.486;2023-02-28T05:49:57;2.58;;;1.83;;
54561;SDS011;40456;53.358;-1.486;2023-02-28T05:52:22;2.45;;;2.25;;
54561;SDS011;40456;53.358;-1.486;2023-02-28T05:54:48;2.28;;;1.98;;
54561;SDS011;40456;53.358;-1.486;2023-02-28T05:57:13;2.75;;;2.20;;
54561;SDS011;40456;53.358;-1.486;2023-02-28T05:59:39;1.98;;;1.77;;
54561;SDS011;40456;53.358;-1.486;2023-02-28T06:02:05;2.42;;;2.22;;
54561;SDS011;40456;53.358;-1.486;2023-02-28T06:04:31;2.78;;;1.60;;
54561;SDS011;40456;53.358;-1.486;2023-02-28T06:06:57;3.80;;;2.08;;
54561;SDS011;40456;53.358;-1.486;2023-02-28T06:09:22;2.55;;;2.15;;
54561;SDS011;40456;53.358;-1.486;2023-02-28T06:11:48;2.67;;;2.10;;
54561;SDS011;40456;53.358;-1.486;2023-02-28T06:14:17;3.08;;;2.15;;
54561;SDS011;40456;53.358;-1.486;2023-02-28T06:16:43;1.60;;;1.50;;
54561;SDS011;40456;53.358;-1.486;2023-02-28T06:19:09;2.20;;;2.00;;
54561;SDS011;40456;53.358;-1.486;2023-02-28T06:21:34;2.67;;;2.00;;
54561;SDS011;40456;53.358;-1.486;2023-02-28T06:24:00;2.92;;;1.70;;
54561;SDS011;40456;53.358;-1.486;2023-02-28T06:26:26;2.22;;;1.85;;
54561;SDS011;40456;53.358;-1.486;2023-02-28T06:28:52;2.00;;;1.80;;
54561;SDS011;40456;53.358;-1.486;2023-02-28T06:31:17;3.25;;;2.47;;
54561;SDS011;40456;53.358;-1.486;2023-02-28T06:33:43;4.20;;;2.15;;
54561;SDS011;40456;53.358;-1.486;2023-02-28T06:36:10;2.75;;;1.85;;
54561;SDS011;40456;53.358;-1.486;2023-02-28T06:38:37;3.50;;;2.50;;
54561;SDS011;40456;53.358;-1.486;2023-02-28T06:41:03;2.30;;;2.03;;
54561;SDS011;40456;53.358;-1.486;2023-02-28T06:43:30;3.15;;;2.20;;
54561;SDS011;40456;53.358;-1.486;2023-02-28T06:45:59;2.88;;;1.92;;
54561;SDS011;40456;53.358;-1.486;2023-02-28T06:48:25;2.45;;;2.25;;
54561;SDS011;40456;53.358;-1.486;2023-02-28T06:50:52;2.78;;;2.30;;
54561;SDS011;40456;53.358;-1.486;2023-02-28T06:53:17;2.47;;;2.20;;
54561;SDS011;40456;53.358;-1.486;2023-02-28T06:55:43;3.25;;;2.70;;
54561;SDS011;40456;53.358;-1.486;2023-02-28T06:58:08;2.92;;;2.28;;
54561;SDS011;40456;53.358;-1.486;2023-02-28T07:00:42;4.38;;;3.15;;
54561;SDS011;40456;53.358;-1.486;2023-02-28T07:03:08;4.07;;;2.83;;
54561;SDS011;40456;53.358;-1.486;2023-02-28T07:05:35;2.67;;;2.10;;
54561;SDS011;40456;53.358;-1.486;2023-02-28T07:08:01;3.65;;;2.60;;
54561;SDS011;40456;53.358;-1.486;2023-02-28T07:10:28;3.47;;;2.70;;
54561;SDS011;40456;53.358;-1.486;2023-02-28T07:12:53;3.67;;;2.78;;
54561;SDS011;40456;53.358;-1.486;2023-02-28T07:15:19;3.67;;;2.55;;
54561;SDS011;40456;53.358;-1.486;2023-02-28T07:17:44;4.60;;;2.78;;
54561;SDS011;40456;53.358;-1.486;2023-02-28T07:20:10;3.30;;;2.30;;
54561;SDS011;40456;53.358;-1.486;2023-02-28T07:22:36;3.58;;;2.50;;
54561;SDS011;40456;53.358;-1.486;2023-02-28T07:25:03;3.95;;;2.45;;
54561;SDS011;40456;53.358;-1.486;2023-02-28T07:27:29;3.65;;;2.50;;
54561;SDS011;40456;53.358;-1.486;2023-02-28T07:29:55;3.00;;;2.20;;
54561;SDS011;40456;53.358;-1.486;2023-02-28T07:32:20;2.45;;;1.90;;
54561;SDS011;40456;53.358;-1.486;2023-02-28T07:34:45;2.00;;;1.73;;
54561;SDS011;40456;53.358;-1.486;2023-02-28T07:37:11;1.65;;;1.45;;
54561;SDS011;40456;53.358;-1.486;2023-02-28T07:39:36;2.10;;;1.63;;
54561;SDS011;40456;53.358;-1.486;2023-02-28T07:42:05;1.80;;;1.50;;
54561;SDS011;40456;53.358;-1.486;2023-02-28T07:44:31;2.97;;;1.40;;
54561;SDS011;40456;53.358;-1.486;2023-02-28T07:46:57;2.88;;;1.17;;
54561;SDS011;40456;53.358;-1.486;2023-02-28T07:49:22;2.35;;;1.40;;
54561;SDS011;40456;53.358;-1.486;2023-02-28T07:51:48;1.77;;;1.40;;
54561;SDS011;40456;53.358;-1.486;2023-02-28T07:54:13;3.13;;;1.13;;
54561;SDS011;40456;53.358;-1.486;2023-02-28T07:56:39;1.75;;;1.10;;
54561;SDS011;40456;53.358;-1.486;2023-02-28T07:59:04;2.45;;;1.52;;
54561;SDS011;40456;53.358;-1.486;2023-02-28T08:01:29;1.35;;;0.90;;
54561;SDS011;40456;53.358;-1.486;2023-02-28T08:03:55;0.93;;;0.75;;
54561;SDS011;40456;53.358;-1.486;2023-02-28T08:06:22;1.67;;;1.00;;
54561;SDS011;40456;53.358;-1.486;2023-02-28T08:08:49;1.10;;;1.00;;
54561;SDS011;40456;53.358;-1.486;2023-02-28T08:11:15;2.28;;;1.30;;
54561;SDS011;40456;53.358;-1.486;2023-02-28T08:13:41;1.10;;;0.77;;
54561;SDS011;40456;53.358;-1.486;2023-02-28T08:16:08;1.33;;;0.80;;
54561;SDS011;40456;53.358;-1.486;2023-02-28T08:18:34;1.08;;;1.02;;
54561;SDS011;40456;53.358;-1.486;2023-02-28T08:21:05;3.55;;;1.17;;
54561;SDS011;40456;53.358;-1.486;2023-02-28T08:23:31;2.05;;;1.00;;
54561;SDS011;40456;53.358;-1.486;2023-02-28T08:25:58;1.23;;;0.82;;
54561;SDS011;40456;53.358;-1.486;2023-02-28T08:28:23;1.08;;;0.60;;
54561;SDS011;40456;53.358;-1.486;2023-02-28T08:30:49;1.02;;;0.73;;
54561;SDS011;40456;53.358;-1.486;2023-02-28T08:33:14;1.58;;;0.80;;
54561;SDS011;40456;53.358;-1.486;2023-02-28T08:35:40;1.67;;;0.80;;
54561;SDS011;40456;53.358;-1.486;2023-02-28T08:38:05;3.65;;;1.10;;
54561;SDS011;40456;53.358;-1.486;2023-02-28T08:40:31;2.40;;;0.85;;
54561;SDS011;40456;53.358;-1.486;2023-02-28T08:42:56;1.73;;;1.02;;
54561;SDS011;40456;53.358;-1.486;2023-02-28T08:45:21;1.10;;;1.00;;
54561;SDS011;40456;53.358;-1.486;2023-02-28T08:47:47;1.58;;;0.95;;
54561;SDS011;40456;53.358;-1.486;2023-02-28T08:50:12;5.03;;;1.10;;
54561;SDS011;40456;53.358;-1.486;2023-02-28T08:52:41;1.55;;;0.98;;
54561;SDS011;40456;53.358;-1.486;2023-02-28T08:55:07;1.70;;;0.68;;
54561;SDS011;40456;53.358;-1.486;2023-02-28T08:57:34;1.70;;;0.77;;
54561;SDS011;40456;53.358;-1.486;2023-02-28T08:59:59;2.53;;;1.05;;
54561;SDS011;40456;53.358;-1.486;2023-02-28T09:02:26;3.53;;;1.27;;
54561;SDS011;40456;53.358;-1.486;2023-02-28T09:04:52;2.63;;;1.23;;
54561;SDS011;40456;53.358;-1.486;2023-02-28T09:07:17;2.42;;;1.08;;
54561;SDS011;40456;53.358;-1.486;2023-02-28T09:09:42;3.53;;;1.20;;
54561;SDS011;40456;53.358;-1.486;2023-02-28T09:12:18;4.25;;;1.33;;
54561;SDS011;40456;53.358;-1.486;2023-02-28T09:14:45;2.28;;;0.82;;
54561;SDS011;40456;53.358;-1.486;2023-02-28T09:17:10;2.00;;;0.85;;
54561;SDS011;40456;53.358;-1.486;2023-02-28T09:19:36;1.33;;;0.75;;
54561;SDS011;40456;53.358;-1.486;2023-02-28T09:22:02;1.45;;;1.00;;
54561;SDS011;40456;53.358;-1.486;2023-02-28T09:24:27;1.05;;;0.73;;
54561;SDS011;40456;53.358;-1.486;2023-02-28T09:26:53;3.28;;;0.88;;
54561;SDS011;40456;53.358;-1.486;2023-02-28T09:29:18;3.50;;;1.02;;
54561;SDS011;40456;53.358;-1.486;2023-02-28T09:31:43;2.10;;;1.10;;
54561;SDS011;40456;53.358;-1.486;2023-02-28T09:34:09;1.15;;;0.98;;
54561;SDS011;40456;53.358;-1.486;2023-02-28T09:36:35;1.00;;;0.82;;
54561;SDS011;40456;53.358;-1.486;2023-02-28T09:39:02;1.67;;;0.70;;
54561;SDS011;40456;53.358;-1.486;2023-02-28T09:41:28;1.50;;;1.08;;
54561;SDS011;40456;53.358;-1.486;2023-02-28T09:44:00;2.17;;;0.80;;
54561;SDS011;40456;53.358;-1.486;2023-02-28T09:46:44;0.60;;;0.60;;
54561;SDS011;40456;53.358;-1.486;2023-02-28T09:49:14;1.38;;;0.70;;
54561;SDS011;40456;53.358;-1.486;2023-02-28T09:54:09;1.20;;;0.70;;
54561;SDS011;40456;53.358;-1.486;2023-02-28T09:56:44;1.58;;;0.85;;
54561;SDS011;40456;53.358;-1.486;2023-02-28T10:01:49;0.60;;;0.60;;
54561;SDS011;40456;53.358;-1.486;2023-02-28T10:04:26;1.48;;;0.98;;
54561;SDS011;40456;53.358;-1.486;2023-02-28T10:07:00;1.77;;;0.85;;
54561;SDS011;40456;53.358;-1.486;2023-02-28T10:09:32;2.13;;;0.93;;
54561;SDS011;40456;53.358;-1.486;2023-02-28T10:12:00;1.00;;;0.80;;
54561;SDS011;40456;53.358;-1.486;2023-02-28T10:14:29;2.55;;;0.68;;
54561;SDS011;40456;53.358;-1.486;2023-02-28T10:16:59;0.70;;;0.70;;
54561;SDS011;40456;53.358;-1.486;2023-02-28T10:24:53;0.80;;;0.75;;
54561;SDS011;40456;53.358;-1.486;2023-02-28T10:27:25;0.75;;;0.60;;
54561;SDS011;40456;53.358;-1.486;2023-02-28T10:29:54;0.95;;;0.70;;
54561;SDS011;40456;53.358;-1.486;2023-02-28T10:32:25;1.60;;;0.68;;
54561;SDS011;40456;53.358;-1.486;2023-02-28T10:35:09;1.02;;;0.73;;
54561;SDS011;40456;53.358;-1.486;2023-02-28T10:37:44;1.55;;;0.98;;
54561;SDS011;40456;53.358;-1.486;2023-02-28T10:40:33;0.77;;;0.77;;
54561;SDS011;40456;53.358;-1.486;2023-02-28T10:45:37;2.92;;;1.10;;
54561;SDS011;40456;53.358;-1.486;2023-02-28T10:56:25;1.38;;;0.93;;
54561;SDS011;40456;53.358;-1.486;2023-02-28T11:03:54;1.00;;;0.63;;
54561;SDS011;40456;53.358;-1.486;2023-02-28T11:06:21;2.03;;;0.70;;
54561;SDS011;40456;53.358;-1.486;2023-02-28T11:08:49;0.60;;;0.60;;
54561;SDS011;40456;53.358;-1.486;2023-02-28T11:11:19;1.25;;;0.70;;
54561;SDS011;40456;53.358;-1.486;2023-02-28T11:13:45;1.40;;;0.90;;
54561;SDS011;40456;53.358;-1.486;2023-02-28T11:16:12;1.10;;;1.00;;
54561;SDS011;40456;53.358;-1.486;2023-02-28T11:18:52;1.08;;;0.60;;
54561;SDS011;40456;53.358;-1.486;2023-02-28T11:21:22;2.15;;;0.70;;
54561;SDS011;40456;53.358;-1.486;2023-02-28T11:23:51;1.52;;;0.90;;
54561;SDS011;40456;53.358;-1.486;2023-02-28T11:26:34;1.15;;;0.85;;
54561;SDS011;40456;53.358;-1.486;2023-02-28T11:29:03;2.13;;;0.98;;
54561;SDS011;40456;53.358;-1.486;2023-02-28T11:34:45;1.70;;;0.70;;
54561;SDS011;40456;53.358;-1.486;2023-02-28T11:37:13;1.67;;;0.80;;
54561;SDS011;40456;53.358;-1.486;2023-02-28T11:39:40;0.93;;;0.60;;
54561;SDS011;40456;53.358;-1.486;2023-02-28T11:42:22;1.33;;;0.98;;
54561;SDS011;40456;53.358;-1.486;2023-02-28T11:55:26;1.67;;;0.70;;
54561;SDS011;40456;53.358;-1.486;2023-02-28T12:03:11;1.02;;;0.68;;
54561;SDS011;40456;53.358;-1.486;2023-02-28T12:05:45;1.38;;;0.60;;
54561;SDS011;40456;53.358;-1.486;2023-02-28T12:08:26;1.13;;;0.50;;
54561;SDS011;40456;53.358;-1.486;2023-02-28T12:19:29;0.85;;;0.73;;
54561;SDS011;40456;53.358;-1.486;2023-02-28T12:21:48;0.50;;;0.50;;
54561;SDS011;40456;53.358;-1.486;2023-02-28T12:24:45;0.43;;;0.40;;
54561;SDS011;40456;53.358;-1.486;2023-02-28T12:27:26;0.50;;;0.50;;
54561;SDS011;40456;53.358;-1.486;2023-02-28T12:29:57;0.95;;;0.47;;
54561;SDS011;40456;53.358;-1.486;2023-02-28T12:32:33;1.63;;;0.35;;
54561;SDS011;40456;53.358;-1.486;2023-02-28T12:35:02;1.83;;;0.63;;
54561;SDS011;40456;53.358;-1.486;2023-02-28T12:37:35;0.90;;;0.40;;
54561;SDS011;40456;53.358;-1.486;2023-02-28T12:40:29;0.35;;;0.35;;
54561;SDS011;40456;53.358;-1.486;2023-02-28T12:43:04;0.98;;;0.57;;
54561;SDS011;40456;53.358;-1.486;2023-02-28T12:48:10;2.13;;;0.50;;
54561;SDS011;40456;53.358;-1.486;2023-02-28T12:50:39;0.45;;;0.30;;
54561;SDS011;40456;53.358;-1.486;2023-02-28T12:55:46;0.52;;;0.40;;
54561;SDS011;40456;53.358;-1.486;2023-02-28T13:04:24;0.25;;;0.20;;
54561;SDS011;40456;53.358;-1.486;2023-02-28T13:09:23;0.50;;;0.50;;
54561;SDS011;40456;53.358;-1.486;2023-02-28T13:11:52;1.45;;;0.55;;
54561;SDS011;40456;53.358;-1.486;2023-02-28T13:16:54;1.85;;;0.30;;
54561;SDS011;40456;53.358;-1.486;2023-02-28T13:19:25;0.38;;;0.30;;
54561;SDS011;40456;53.358;-1.486;2023-02-28T13:21:53;0.95;;;0.70;;
54561;SDS011;40456;53.358;-1.486;2023-02-28T13:29:43;0.98;;;0.40;;
54561;SDS011;40456;53.358;-1.486;2023-02-28T13:34:35;0.82;;;0.40;;
54561;SDS011;40456;53.358;-1.486;2023-02-28T13:42:31;0.40;;;0.32;;
54561;SDS011;40456;53.358;-1.486;2023-02-28T13:47:43;1.05;;;0.52;;
54561;SDS011;40456;53.358;-1.486;2023-02-28T13:58:35;0.70;;;0.50;;
54561;SDS011;40456;53.358;-1.486;2023-02-28T14:06:55;0.65;;;0.32;;
54561;SDS011;40456;53.358;-1.486;2023-02-28T14:09:29;0.85;;;0.40;;
54561;SDS011;40456;53.358;-1.486;2023-02-28T14:15:17;1.00;;;0.40;;
54561;SDS011;40456;53.358;-1.486;2023-02-28T14:18:32;0.45;;;0.25;;
54561;SDS011;40456;53.358;-1.486;2023-02-28T14:21:08;0.90;;;0.47;;
54561;SDS011;40456;53.358;-1.486;2023-02-28T14:35:01;2.30;;;0.73;;
54561;SDS011;40456;53.358;-1.486;2023-02-28T14:37:47;2.00;;;0.80;;
54561;SDS011;40456;53.358;-1.486;2023-02-28T14:40:32;1.13;;;0.57;;
54561;SDS011;40456;53.358;-1.486;2023-02-28T14:43:00;2.38;;;0.60;;
54561;SDS011;40456;53.358;-1.486;2023-02-28T14:45:27;2.20;;;0.55;;
54561;SDS011;40456;53.358;-1.486;2023-02-28T14:47:55;1.02;;;0.70;;
54561;SDS011;40456;53.358;-1.486;2023-02-28T14:50:23;1.38;;;0.65;;
54561;SDS011;40456;53.358;-1.486;2023-02-28T14:52:53;1.67;;;0.68;;
54561;SDS011;40456;53.358;-1.486;2023-02-28T14:55:22;0.80;;;0.77;;
54561;SDS011;40456;53.358;-1.486;2023-02-28T14:58:01;0.73;;;0.70;;
54561;SDS011;40456;53.358;-1.486;2023-02-28T15:00:30;0.98;;;0.65;;
54561;SDS011;40456;53.358;-1.486;2023-02-28T15:02:58;0.80;;;0.57;;
54561;SDS011;40456;53.358;-1.486;2023-02-28T15:05:26;1.02;;;0.80;;
54561;SDS011;40456;53.358;-1.486;2023-02-28T15:08:14;0.80;;;0.50;;
54561;SDS011;40456;53.358;-1.486;2023-02-28T15:10:44;2.13;;;0.82;;
54561;SDS011;40456;53.358;-1.486;2023-02-28T15:13:42;1.50;;;0.70;;
54561;SDS011;40456;53.358;-1.486;2023-02-28T15:16:32;1.50;;;0.70;;
54561;SDS011;40456;53.358;-1.486;2023-02-28T15:19:01;0.85;;;0.60;;
54561;SDS011;40456;53.358;-1.486;2023-02-28T15:21:31;0.68;;;0.50;;
54561;SDS011;40456;53.358;-1.486;2023-02-28T15:24:06;2.28;;;0.68;;
54561;SDS011;40456;53.358;-1.486;2023-02-28T15:26:34;0.82;;;0.55;;
54561;SDS011;40456;53.358;-1.486;2023-02-28T15:29:07;2.83;;;0.40;;
54561;SDS011;40456;53.358;-1.486;2023-02-28T15:31:39;1.15;;;0.65;;
54561;SDS011;40456;53.358;-1.486;2023-02-28T15:34:06;1.95;;;0.68;;
54561;SDS011;40456;53.358;-1.486;2023-02-28T15:36:37;1.02;;;0.50;;
54561;SDS011;40456;53.358;-1.486;2023-02-28T15:39:16;1.00;;;0.60;;
54561;SDS011;40456;53.358;-1.486;2023-02-28T15:41:44;1.77;;;0.50;;
54561;SDS011;40456;53.358;-1.486;2023-02-28T15:49:26;0.68;;;0.52;;
54561;SDS011;40456;53.358;-1.486;2023-02-28T15:51:53;0.57;;;0.57;;
54561;SDS011;40456;53.358;-1.486;2023-02-28T15:54:22;1.23;;;0.40;;
54561;SDS011;40456;53.358;-1.486;2023-02-28T15:56:52;0.98;;;0.50;;
54561;SDS011;40456;53.358;-1.486;2023-02-28T15:59:23;1.33;;;0.55;;
54561;SDS011;40456;53.358;-1.486;2023-02-28T16:02:33;1.25;;;0.60;;
54561;SDS011;40456;53.358;-1.486;2023-02-28T16:04:54;0.80;;;0.60;;
54561;SDS011;40456;53.358;-1.486;2023-02-28T16:07:43;1.70;;;0.57;;
54561;SDS011;40456;53.358;-1.486;2023-02-28T16:10:10;1.23;;;0.50;;
54561;SDS011;40456;53.358;-1.486;2023-02-28T16:12:37;0.45;;;0.40;;
54561;SDS011;40456;53.358;-1.486;2023-02-28T16:15:46;1.63;;;0.60;;
54561;SDS011;40456;53.358;-1.486;2023-02-28T16:17:54;2.03;;;0.60;;
54561;SDS011;40456;53.358;-1.486;2023-02-28T16:20:21;1.20;;;0.40;;
54561;SDS011;40456;53.358;-1.486;2023-02-28T16:22:48;0.70;;;0.50;;
54561;SDS011;40456;53.358;-1.486;2023-02-28T16:25:14;1.00;;;0.60;;
54561;SDS011;40456;53.358;-1.486;2023-02-28T16:27:41;0.63;;;0.50;;
54561;SDS011;40456;53.358;-1.486;2023-02-28T16:30:07;2.35;;;0.32;;
54561;SDS011;40456;53.358;-1.486;2023-02-28T16:32:41;1.38;;;0.40;;
54561;SDS011;40456;53.358;-1.486;2023-02-28T16:35:09;0.75;;;0.47;;
54561;SDS011;40456;53.358;-1.486;2023-02-28T16:37:35;0.80;;;0.40;;
54561;SDS011;40456;53.358;-1.486;2023-02-28T16:40:00;1.25;;;0.60;;
54561;SDS011;40456;53.358;-1.486;2023-02-28T16:42:27;0.38;;;0.38;;
54561;SDS011;40456;53.358;-1.486;2023-02-28T16:44:53;1.15;;;0.60;;
54561;SDS011;40456;53.358;-1.486;2023-02-28T16:47:19;0.93;;;0.40;;
54561;SDS011;40456;53.358;-1.486;2023-02-28T16:49:45;2.90;;;0.47;;
54561;SDS011;40456;53.358;-1.486;2023-02-28T16:52:12;3.08;;;0.63;;
54561;SDS011;40456;53.358;-1.486;2023-02-28T16:54:38;0.65;;;0.45;;
54561;SDS011;40456;53.358;-1.486;2023-02-28T16:57:05;0.50;;;0.50;;
54561;SDS011;40456;53.358;-1.486;2023-02-28T16:59:31;1.52;;;0.80;;
54561;SDS011;40456;53.358;-1.486;2023-02-28T17:01:57;1.20;;;0.60;;
54561;SDS011;40456;53.358;-1.486;2023-02-28T17:04:25;0.43;;;0.40;;
54561;SDS011;40456;53.358;-1.486;2023-02-28T17:06:51;1.40;;;0.60;;
54561;SDS011;40456;53.358;-1.486;2023-02-28T17:09:18;0.73;;;0.52;;
54561;SDS011;40456;53.358;-1.486;2023-02-28T17:11:45;1.20;;;0.32;;
54561;SDS011;40456;53.358;-1.486;2023-02-28T17:14:11;0.38;;;0.38;;
54561;SDS011;40456;53.358;-1.486;2023-02-28T17:16:37;0.85;;;0.60;;